createdAt,value
2018-09-22T00:03:21.811Z,57.80
2018-09-22T00:08:24.879Z,57.80
2018-09-22T00:13:27.804Z,57.80
2018-09-22T00:18:30.789Z,57.30
2018-09-22T00:23:33.754Z,57.30
2018-09-22T00:28:37.162Z,57.50
2018-09-22T00:33:40.136Z,57.50
2018-09-22T00:38:43.160Z,57.00
2018-09-22T00:43:46.107Z,57.30
2018-09-22T00:48:49.093Z,58.40
2018-09-22T00:53:52.118Z,57.80
2018-09-22T00:58:55.100Z,58.10
2018-09-22T01:03:58.232Z,59.00
2018-09-22T01:09:03.973Z,59.20
2018-09-22T01:14:07.980Z,59.60
2018-09-22T01:19:11.655Z,59.80
2018-09-22T01:24:14.670Z,59.20
2018-09-22T01:29:17.671Z,59.10
2018-09-22T01:34:20.643Z,59.50
2018-09-22T01:39:25.052Z,59.80
2018-09-22T01:44:28.084Z,60.30
2018-09-22T01:49:31.046Z,60.40
2018-09-22T01:54:34.059Z,60.40
2018-09-22T01:59:37.073Z,60.60
2018-09-22T02:04:40.079Z,60.80
2018-09-22T02:09:43.055Z,60.90
2018-09-22T02:14:45.999Z,60.50
2018-09-22T02:19:48.956Z,60.50
2018-09-22T02:24:51.934Z,60.90
2018-09-22T02:29:54.995Z,60.30
2018-09-22T02:34:57.931Z,61.00
2018-09-22T02:40:03.671Z,61.60
2018-09-22T02:45:07.215Z,62.30
2018-09-22T02:50:10.244Z,62.90
2018-09-22T02:55:13.280Z,63.40
2018-09-22T03:00:16.924Z,64.60
2018-09-22T03:05:20.080Z,65.30
2018-09-22T03:10:23.048Z,65.90
2018-09-22T03:15:26.149Z,66.20
2018-09-22T03:20:29.151Z,66.30
2018-09-22T03:25:32.112Z,66.30
2018-09-22T03:30:35.129Z,66.90
2018-09-22T03:35:38.088Z,66.80
2018-09-22T03:40:41.628Z,67.70
2018-09-22T03:45:44.583Z,67.40
2018-09-22T03:50:47.612Z,68.10
2018-09-22T03:55:50.578Z,68.90
2018-09-22T04:00:53.560Z,69.30
2018-09-22T04:05:56.515Z,68.80
2018-09-22T04:10:59.480Z,68.80
2018-09-22T04:16:02.732Z,68.80
2018-09-22T04:21:05.710Z,68.60
2018-09-22T04:26:08.683Z,69.10
2018-09-22T04:31:11.695Z,70.10
2018-09-22T04:36:15.001Z,70.20
2018-09-22T04:41:18.091Z,70.40
2018-09-22T04:46:21.091Z,70.80
2018-09-22T04:51:24.844Z,71.00
2018-09-22T04:56:28.048Z,71.40
2018-09-22T05:01:31.121Z,71.20
2018-09-22T05:06:34.108Z,71.80
2018-09-22T05:11:37.155Z,72.00
2018-09-22T05:16:40.146Z,72.50
2018-09-22T05:21:43.095Z,72.70
2018-09-22T05:26:46.115Z,72.30
2018-09-22T05:31:49.121Z,73.10
2018-09-22T05:36:52.100Z,72.30
2018-09-22T05:41:55.102Z,72.70
2018-09-22T05:46:58.094Z,73.70
2018-09-22T05:52:03.625Z,74.10
2018-09-22T05:57:06.665Z,75.60
2018-09-22T06:02:09.678Z,75.80
2018-09-22T06:07:12.644Z,75.00
2018-09-22T06:12:15.616Z,74.10
2018-09-22T06:17:18.577Z,73.70
2018-09-22T06:22:21.599Z,73.20
2018-09-22T06:27:24.791Z,71.10
2018-09-22T06:32:28.023Z,69.50
2018-09-22T06:37:31.041Z,68.40
2018-09-22T06:42:34.017Z,66.60
2018-09-22T06:47:37.340Z,65.70
2018-09-22T06:52:40.348Z,63.60
2018-09-22T06:57:43.335Z,60.40
2018-09-22T07:02:46.537Z,60.70
2018-09-22T07:07:49.860Z,60.80
2018-09-22T07:12:53.014Z,61.50
2018-09-22T07:17:56.283Z,62.00
2018-09-22T07:23:04.882Z,61.30
2018-09-22T07:28:07.864Z,61.30
2018-09-22T07:33:10.844Z,60.80
2018-09-22T07:38:13.864Z,61.70
2018-09-22T07:43:16.868Z,59.90
2018-09-22T07:48:20.004Z,59.40
2018-09-22T07:53:23.070Z,58.80
2018-09-22T07:58:26.071Z,57.90
2018-09-22T08:03:29.105Z,56.90
2018-09-22T08:08:32.042Z,56.30
2018-09-22T08:13:35.212Z,55.50
2018-09-22T08:18:38.148Z,54.80
2018-09-22T08:23:41.036Z,55.90
2018-09-22T08:28:44.542Z,54.90
2018-09-22T08:33:47.445Z,53.80
2018-09-22T08:38:50.380Z,51.80
2018-09-22T08:43:53.347Z,52.60
2018-09-22T08:48:56.291Z,54.20
2018-09-22T08:53:59.269Z,53.80
2018-09-22T08:59:05.273Z,53.20
2018-09-22T09:04:08.203Z,52.70
2018-09-22T09:09:11.129Z,53.40
2018-09-22T09:14:14.048Z,53.10
2018-09-22T09:19:16.865Z,53.50
2018-09-22T09:24:19.717Z,53.60
2018-09-22T09:29:22.579Z,53.10
2018-09-22T09:34:25.525Z,53.60
2018-09-22T09:39:28.473Z,52.50
2018-09-22T09:44:31.393Z,51.70
2018-09-22T09:49:34.236Z,50.30
2018-09-22T09:54:37.235Z,49.80
2018-09-22T09:59:40.092Z,51.00
2018-09-22T10:04:43.009Z,51.10
2018-09-22T10:09:46.050Z,50.30
2018-09-22T10:14:49.032Z,49.90
2018-09-22T10:19:51.927Z,49.70
2018-09-22T10:24:54.824Z,49.30
2018-09-22T10:29:57.730Z,47.10
2018-09-22T10:35:03.569Z,47.80
2018-09-22T10:40:06.771Z,47.10
2018-09-22T10:45:09.697Z,46.90
2018-09-22T10:50:12.669Z,47.60
2018-09-22T10:55:15.550Z,47.40
2018-09-22T11:00:18.490Z,46.50
2018-09-22T11:05:21.399Z,46.30
2018-09-22T11:10:24.574Z,47.30
2018-09-22T11:15:27.466Z,46.90
2018-09-22T11:20:30.355Z,46.70
2018-09-22T11:25:33.276Z,46.40
2018-09-22T11:30:36.193Z,45.60
2018-09-22T11:35:39.115Z,45.70
2018-09-22T11:40:42.134Z,46.10
2018-09-22T11:45:45.227Z,46.10
2018-09-22T11:50:48.143Z,44.50
2018-09-22T11:55:51.120Z,44.70
2018-09-22T12:00:54.058Z,43.30
2018-09-22T12:05:57.029Z,43.30
2018-09-22T12:11:00.012Z,42.50
2018-09-22T12:16:05.226Z,42.60
2018-09-22T12:21:08.133Z,42.60
2018-09-22T12:26:11.046Z,41.80
2018-09-22T12:31:13.986Z,42.90
2018-09-22T12:36:17.061Z,40.60
2018-09-22T12:41:20.049Z,40.00
2018-09-22T12:46:22.982Z,39.20
2018-09-22T12:51:25.853Z,40.50
2018-09-22T12:56:28.954Z,41.60
2018-09-22T13:01:31.906Z,41.50
2018-09-22T13:06:34.921Z,41.40
2018-09-22T13:11:37.861Z,41.70
2018-09-22T13:16:40.717Z,41.30
2018-09-22T13:21:43.631Z,40.90
2018-09-22T13:26:46.566Z,40.60
2018-09-22T13:31:49.462Z,41.10
2018-09-22T13:36:52.366Z,40.50
2018-09-22T13:41:55.217Z,39.90
2018-09-22T13:46:58.172Z,40.10
2018-09-22T13:52:03.629Z,40.10
2018-09-22T13:57:06.617Z,40.40
2018-09-22T14:02:09.668Z,40.20
2018-09-22T14:07:12.637Z,39.60
2018-09-22T14:12:15.517Z,40.60
2018-09-22T14:17:18.466Z,39.20
2018-09-22T14:22:21.353Z,39.60
2018-09-22T14:27:24.314Z,39.10
2018-09-22T14:32:27.280Z,39.20
2018-09-22T14:37:30.253Z,39.00
2018-09-22T14:42:33.181Z,38.50
2018-09-22T14:47:36.212Z,38.40
2018-09-22T14:52:39.138Z,38.40
2018-09-22T14:57:42.269Z,38.60
2018-09-22T15:02:45.207Z,39.50
2018-09-22T15:07:48.133Z,40.00
2018-09-22T15:12:51.281Z,40.20
2018-09-22T15:17:54.256Z,40.10
2018-09-22T15:22:57.220Z,41.20
2018-09-22T15:28:00.189Z,41.30
2018-09-22T15:33:05.121Z,41.30
2018-09-22T15:38:08.081Z,42.00
2018-09-22T15:43:10.983Z,42.10
2018-09-22T15:48:14.292Z,40.60
2018-09-22T15:53:17.197Z,40.40
2018-09-22T15:58:20.641Z,44.50
2018-09-22T16:03:23.695Z,46.50
2018-09-22T16:08:26.930Z,45.60
2018-09-22T16:18:38.968Z,49.80
2018-09-22T16:23:41.900Z,53.30
2018-09-22T16:28:45.047Z,54.40
2018-09-22T16:33:47.991Z,54.60
2018-09-22T16:38:50.938Z,58.90
2018-09-22T16:43:53.897Z,57.90
2018-09-22T16:48:57.091Z,57.20
2018-09-22T16:54:00.042Z,57.10
2018-09-22T16:59:04.001Z,58.00
2018-09-22T17:04:07.132Z,59.10
2018-09-22T17:09:09.998Z,59.30
2018-09-22T17:14:13.029Z,60.70
2018-09-22T17:19:16.027Z,62.70
2018-09-22T17:24:19.069Z,63.30
2018-09-22T17:29:21.980Z,65.00
2018-09-22T17:34:25.444Z,66.10
2018-09-22T17:39:28.403Z,69.10
2018-09-22T17:44:31.361Z,71.70
2018-09-22T17:49:34.329Z,73.30
2018-09-22T17:54:37.188Z,76.80
2018-09-22T17:59:41.060Z,76.70
2018-09-22T18:04:43.942Z,76.90
2018-09-22T18:09:46.895Z,78.20
2018-09-22T18:14:50.033Z,78.30
2018-09-22T18:19:52.984Z,79.40
2018-09-22T18:24:55.947Z,79.90
2018-09-22T18:29:58.916Z,79.70
2018-09-22T18:35:04.189Z,79.90
2018-09-22T18:40:07.168Z,80.10
2018-09-22T18:45:10.250Z,80.60
2018-09-22T18:50:13.221Z,80.30
2018-09-22T18:55:16.207Z,80.80
2018-09-22T19:00:19.168Z,81.00
2018-09-22T19:05:22.247Z,80.50
2018-09-22T19:10:25.195Z,78.60
2018-09-22T19:15:45.003Z,83.30
2018-09-22T19:22:57.513Z,81.80
2018-09-22T19:28:06.799Z,81.00
2018-09-22T19:33:15.980Z,80.40
2018-09-22T19:38:25.735Z,80.90
2018-09-22T19:43:35.979Z,81.00
2018-09-22T19:48:43.160Z,83.80
2018-09-22T19:53:46.985Z,82.60
2018-09-22T19:58:50.014Z,82.70
2018-09-22T20:03:53.021Z,82.70
2018-09-22T20:08:56.064Z,83.70
2018-09-22T20:13:59.221Z,82.90
2018-09-22T20:19:02.931Z,82.90
2018-09-22T20:24:06.230Z,84.10
2018-09-22T20:29:09.379Z,85.80
2018-09-22T20:34:12.387Z,85.80
2018-09-22T20:39:15.797Z,85.90
2018-09-22T20:44:18.904Z,86.20
2018-09-22T20:49:22.160Z,87.60
2018-09-22T20:54:25.198Z,88.00
2018-09-22T20:59:28.337Z,89.40
2018-09-22T21:04:31.416Z,89.50
2018-09-22T21:09:34.482Z,88.60
2018-09-22T21:14:37.532Z,90.50
2018-09-22T21:19:40.686Z,92.80
2018-09-22T21:24:44.036Z,92.90
2018-09-22T21:29:47.585Z,92.10
2018-09-22T21:34:50.618Z,92.30
2018-09-22T21:39:53.652Z,92.40
2018-09-22T21:44:56.735Z,93.70
2018-09-22T21:49:59.736Z,92.90
2018-09-22T21:55:05.457Z,91.70
2018-09-22T22:00:08.571Z,93.80
2018-09-22T22:05:11.659Z,94.40
2018-09-22T22:10:14.679Z,93.90
2018-09-22T22:15:17.709Z,92.30
2018-09-22T22:20:20.744Z,93.80
2018-09-22T22:25:23.771Z,95.00
2018-09-22T22:30:26.904Z,94.40
2018-09-22T22:35:29.942Z,94.60
2018-09-22T22:40:33.580Z,96.00
2018-09-22T22:45:36.792Z,94.50
2018-09-22T22:50:39.764Z,96.10
2018-09-22T22:55:42.731Z,95.40
2018-09-22T23:00:45.796Z,95.90
2018-09-22T23:05:48.856Z,95.30
2018-09-22T23:10:51.845Z,94.10
2018-09-22T23:15:55.103Z,91.90
2018-09-22T23:20:58.448Z,92.80
2018-09-22T23:26:04.175Z,93.20
2018-09-22T23:31:07.255Z,95.00
2018-09-22T23:36:10.267Z,94.20
2018-09-22T23:41:13.341Z,95.80
2018-09-22T23:46:16.327Z,96.80
2018-09-22T23:51:19.507Z,97.50
2018-09-22T23:56:22.508Z,97.90
